Time;durP1;ratioP1;P1;durP2;ratioP2;P2;SDS_P1;SDS_P2;PMS_P1;PMS_P2;Temp;Humidity;BMP_temperature;BMP_pressure;BME280_temperature;BME280_humidity;BME280_pressure;Samples;Min_cycle;Max_cycle;Signal;HPM_P1;HPM_P2
2023/05/07 00:01:05;;;;;;;6.40;3.85;;;;;;;16.19;91.66;100646.50;5060718;28;20429;-76
2023/05/07 00:03:31;;;;;;;3.60;3.30;;;;;;;16.23;91.02;100644.34;5072341;28;20039;-77
2023/05/07 00:05:56;;;;;;;4.18;3.38;;;;;;;16.25;90.85;100643.16;5075840;28;20687;-77
2023/05/07 00:08:22;;;;;;;5.97;3.05;;;;;;;16.26;90.77;100644.78;5068183;28;20066;-77
2023/05/07 00:10:47;;;;;;;5.70;3.92;;;;;;;16.26;91.00;100643.97;5065918;28;20205;-77
2023/05/07 00:13:13;;;;;;;4.40;4.00;;;;;;;16.25;91.49;100642.34;5036494;28;20075;-77
2023/05/07 00:15:38;;;;;;;5.43;3.35;;;;;;;16.20;92.15;100636.78;5057773;28;20040;-78
2023/05/07 00:18:04;;;;;;;3.60;3.30;;;;;;;16.03;93.60;100628.25;5038501;28;20432;-77
2023/05/07 00:20:29;;;;;;;8.00;3.40;;;;;;;15.84;95.34;100626.06;5054970;28;20095;-77
2023/05/07 00:22:55;;;;;;;4.78;3.83;;;;;;;15.65;96.69;100623.88;5043528;28;20028;-78
2023/05/07 00:25:21;;;;;;;4.75;2.50;;;;;;;15.53;97.39;100626.91;5053907;28;20110;-77
2023/05/07 00:27:46;;;;;;;5.53;3.10;;;;;;;15.72;95.22;100623.03;5055154;28;20036;-77
2023/05/07 00:30:12;;;;;;;7.10;3.83;;;;;;;15.58;96.57;100631.66;5053099;28;20036;-77
2023/05/07 00:32:38;;;;;;;3.63;3.33;;;;;;;15.39;98.41;100625.00;5059857;28;20043;-78
2023/05/07 00:35:05;;;;;;;4.22;3.10;;;;;;;15.26;99.78;100619.47;5057776;28;20106;-76
2023/05/07 00:37:30;;;;;;;6.43;4.38;;;;;;;15.19;100.00;100621.13;5056643;28;20033;-76
2023/05/07 00:39:56;;;;;;;4.63;3.65;;;;;;;15.12;100.00;100622.84;5053260;28;20068;-78
2023/05/07 00:42:21;;;;;;;7.65;4.15;;;;;;;15.06;100.00;100618.25;5059973;28;20046;-78
2023/05/07 00:44:47;;;;;;;5.30;3.97;;;;;;;15.01;100.00;100625.81;5048614;28;20029;-78
2023/05/07 00:47:13;;;;;;;5.45;4.50;;;;;;;15.00;100.00;100626.81;5058979;28;20040;-77
2023/05/07 00:49:42;;;;;;;4.90;4.50;;;;;;;14.96;100.00;100628.13;5054858;28;20116;-77
2023/05/07 00:52:10;;;;;;;4.68;4.15;;;;;;;14.91;100.00;100621.59;5051841;28;20468;-76
2023/05/07 00:54:36;;;;;;;4.53;4.13;;;;;;;14.83;100.00;100623.41;5053603;28;20028;-76
2023/05/07 00:57:03;;;;;;;6.38;4.05;;;;;;;14.74;100.00;100630.47;5054653;28;20171;-76
2023/05/07 00:59:29;;;;;;;5.57;4.55;;;;;;;14.62;100.00;100626.59;5051878;28;21631;-77
2023/05/07 01:01:54;;;;;;;4.65;4.25;;;;;;;14.59;100.00;100624.28;5050347;28;20035;-77
2023/05/07 01:04:19;;;;;;;6.60;4.03;;;;;;;14.52;100.00;100615.44;5056455;28;20036;-77
2023/05/07 01:06:46;;;;;;;6.65;5.05;;;;;;;14.47;100.00;100618.56;5049890;28;20036;-78
2023/05/07 01:09:12;;;;;;;5.13;4.32;;;;;;;14.42;100.00;100617.44;5047360;28;20384;-77
2023/05/07 01:11:39;;;;;;;6.15;4.20;;;;;;;14.35;100.00;100627.72;5056773;28;20021;-78
2023/05/07 01:14:05;;;;;;;5.15;4.75;;;;;;;14.29;100.00;100625.75;5056458;28;20491;-79
2023/05/07 01:16:31;;;;;;;7.00;4.95;;;;;;;14.27;100.00;100622.47;5054701;28;20086;-77
2023/05/07 01:18:56;;;;;;;4.63;4.15;;;;;;;14.23;100.00;100621.97;5054064;28;20048;-78
2023/05/07 01:21:26;;;;;;;5.07;4.68;;;;;;;14.24;100.00;100613.13;5053442;28;20029;-77
2023/05/07 01:23:53;;;;;;;7.82;4.40;;;;;;;14.25;100.00;100621.81;5065638;28;20017;-79
2023/05/07 01:26:19;;;;;;;5.10;4.63;;;;;;;14.24;100.00;100621.00;5062913;28;20367;-78
2023/05/07 01:28:45;;;;;;;8.15;5.30;;;;;;;14.27;100.00;100614.63;5076096;28;20037;-78
2023/05/07 01:31:13;;;;;;;5.75;4.60;;;;;;;14.24;100.00;100615.75;5067552;28;20050;-79
2023/05/07 01:33:41;;;;;;;5.28;4.78;;;;;;;14.21;100.00;100620.50;5063575;28;20112;-78
2023/05/07 01:36:08;;;;;;;6.63;5.28;;;;;;;14.20;100.00;100622.31;5052524;28;20115;-78
2023/05/07 01:38:36;;;;;;;9.63;5.40;;;;;;;14.18;100.00;100624.28;5058865;28;20037;-78
2023/05/07 01:41:02;;;;;;;5.60;5.10;;;;;;;14.09;100.00;100620.03;5074373;28;20048;-77
2023/05/07 01:43:30;;;;;;;5.65;5.10;;;;;;;14.12;100.00;100619.72;5062770;28;20032;-79
2023/05/07 01:45:57;;;;;;;7.15;5.15;;;;;;;14.14;100.00;100623.00;5057637;28;20060;-78
2023/05/07 01:48:24;;;;;;;5.82;5.32;;;;;;;14.14;100.00;100611.69;5047877;28;20036;-77
2023/05/07 01:50:50;;;;;;;5.18;4.65;;;;;;;14.10;100.00;100616.44;5055705;28;20033;-78
2023/05/07 01:53:15;;;;;;;5.57;4.22;;;;;;;14.10;100.00;100611.19;5053798;28;20035;-77
2023/05/07 01:55:41;;;;;;;6.22;5.18;;;;;;;14.07;100.00;100613.31;5054803;28;20039;-78
2023/05/07 01:58:06;;;;;;;9.07;4.68;;;;;;;14.05;100.00;100618.72;5052424;28;20051;-77
2023/05/07 02:00:32;;;;;;;5.78;4.70;;;;;;;14.02;100.00;100615.63;5050006;28;20512;-77
2023/05/07 02:02:58;;;;;;;7.10;4.57;;;;;;;13.99;100.00;100614.13;5054741;28;20033;-77
2023/05/07 02:05:23;;;;;;;4.53;3.40;;;;;;;14.06;100.00;100604.66;5057805;28;20482;-77
2023/05/07 02:07:49;;;;;;;6.63;4.32;;;;;;;14.34;100.00;100604.28;5055872;28;20082;-77
2023/05/07 02:10:14;;;;;;;4.20;3.70;;;;;;;14.32;100.00;100608.88;5059368;28;20446;-79
2023/05/07 02:12:40;;;;;;;4.55;2.78;;;;;;;14.73;100.00;100604.41;5063647;28;20028;-76
2023/05/07 02:15:06;;;;;;;7.05;2.20;;;;;;;15.13;98.63;100600.81;5066106;28;20093;-77
2023/05/07 02:17:33;;;;;;;4.80;2.78;;;;;;;15.27;96.95;100603.56;5061616;28;20024;-77
2023/05/07 02:19:59;;;;;;;4.53;2.13;;;;;;;15.35;96.29;100602.69;5058341;28;20265;-78
2023/05/07 02:52:42;;;;;;;2.75;2.55;;;;;;;15.65;91.90;100616.00;5073276;27;20732;-72
2023/05/07 02:55:08;;;;;;;2.10;1.90;;;;;;;15.54;92.92;100604.91;5074568;28;20036;-72
2023/05/07 02:57:33;;;;;;;2.35;2.13;;;;;;;15.45;93.58;100602.50;5077199;28;20107;-72
2023/05/07 02:59:59;;;;;;;2.92;2.42;;;;;;;15.35;94.27;100588.75;5075704;28;20044;-72
2023/05/07 03:02:24;;;;;;;3.78;2.15;;;;;;;15.37;94.05;100600.72;5081024;28;20369;-72
2023/05/07 03:04:50;;;;;;;6.68;2.10;;;;;;;15.41;92.80;100602.00;5078205;28;20059;-72
2023/05/07 03:07:15;;;;;;;2.47;1.63;;;;;;;15.51;91.98;100605.25;5075043;28;20412;-72
2023/05/07 03:09:40;;;;;;;4.10;2.08;;;;;;;15.53;91.60;100605.88;5076433;28;20174;-73
2023/05/07 03:12:06;;;;;;;2.13;1.92;;;;;;;15.53;91.64;100605.88;5078279;28;20485;-72
2023/05/07 03:14:31;;;;;;;2.60;2.25;;;;;;;15.46;92.06;100604.94;5081651;28;20109;-72
2023/05/07 03:16:57;;;;;;;3.10;2.03;;;;;;;15.37;92.90;100600.72;5074829;28;20067;-72
2023/05/07 03:19:22;;;;;;;2.40;2.15;;;;;;;15.24;94.25;100610.94;5073337;28;20523;-72
2023/05/07 03:21:48;;;;;;;2.33;2.08;;;;;;;15.13;94.89;100606.88;5079084;28;20031;-71
2023/05/07 03:24:13;;;;;;;2.40;2.20;;;;;;;15.08;95.37;100605.78;5079955;28;20048;-72
2023/05/07 03:26:39;;;;;;;3.60;2.20;;;;;;;15.08;95.66;100613.66;5079407;28;20028;-72
2023/05/07 03:29:05;;;;;;;5.03;2.70;;;;;;;15.08;95.56;100611.03;5074765;28;20082;-72
2023/05/07 03:31:30;;;;;;;4.35;2.47;;;;;;;15.04;95.69;100620.25;5074862;28;20036;-71
2023/05/07 03:33:57;;;;;;;5.07;2.42;;;;;;;14.93;96.49;100616.16;5074341;28;20480;-72
2023/05/07 03:36:23;;;;;;;2.35;2.15;;;;;;;14.85;97.17;100614.38;5071586;28;20036;-73
2023/05/07 03:38:50;;;;;;;3.63;1.88;;;;;;;14.89;96.80;100615.69;5073909;28;20043;-72
2023/05/07 03:41:15;;;;;;;3.00;2.30;;;;;;;14.89;96.88;100614.88;5071593;28;20567;-71
2023/05/07 03:43:41;;;;;;;7.18;2.97;;;;;;;14.88;96.72;100614.06;5073940;28;20043;-73
2023/05/07 03:46:07;;;;;;;3.10;2.30;;;;;;;14.87;97.02;100614.22;5072475;28;20505;-72
2023/05/07 03:48:32;;;;;;;4.72;2.45;;;;;;;14.82;97.66;100609.47;5072754;28;20032;-72
2023/05/07 03:50:58;;;;;;;3.45;2.10;;;;;;;14.85;97.38;100617.00;5074089;28;20050;-72
2023/05/07 03:53:24;;;;;;;2.85;2.42;;;;;;;14.94;96.10;100610.75;5059148;28;20029;-72
2023/05/07 03:55:49;;;;;;;3.38;1.80;;;;;;;15.07;94.45;100612.84;5058984;28;20031;-73
2023/05/07 03:58:15;;;;;;;1.80;1.70;;;;;;;15.17;93.70;100610.00;5058966;28;20496;-73
2023/05/07 04:00:41;;;;;;;3.88;2.20;;;;;;;15.20;93.56;100610.47;5059194;28;20151;-73
2023/05/07 04:03:06;;;;;;;2.75;2.38;;;;;;;15.19;93.63;100608.84;5059033;28;20490;-73
2023/05/07 04:05:32;;;;;;;2.10;1.90;;;;;;;15.16;93.87;100613.59;5059425;28;20580;-73
2023/05/07 04:08:01;;;;;;;3.13;2.60;;;;;;;15.12;94.06;100610.50;5058865;28;20036;-72
2023/05/07 04:10:28;;;;;;;5.22;2.10;;;;;;;15.13;93.88;100619.19;5062036;28;20489;-72
2023/05/07 04:12:53;;;;;;;2.20;1.95;;;;;;;15.14;93.53;100618.22;5068871;28;20037;-72
2023/05/07 04:15:19;;;;;;;2.10;1.83;;;;;;;15.09;93.97;100626.63;5062299;28;20521;-72
2023/05/07 04:17:45;;;;;;;2.42;2.17;;;;;;;15.04;94.33;100623.69;5061079;28;20036;-73
2023/05/07 04:20:14;;;;;;;4.45;2.15;;;;;;;15.01;94.89;100629.25;5059087;28;20048;-72
2023/05/07 04:22:40;;;;;;;3.95;2.47;;;;;;;14.97;95.21;100629.78;5059536;28;20033;-72
2023/05/07 04:25:06;;;;;;;2.75;2.50;;;;;;;14.97;95.31;100633.22;5063255;28;20501;-73
2023/05/07 04:27:32;;;;;;;2.30;1.92;;;;;;;14.93;95.42;100630.09;5064113;28;20045;-73
2023/05/07 04:29:57;;;;;;;3.53;2.13;;;;;;;14.94;95.59;100631.75;5059177;28;20035;-72
2023/05/07 04:32:24;;;;;;;3.40;1.85;;;;;;;15.00;95.68;100639.94;5060957;28;20519;-72
2023/05/07 04:34:50;;;;;;;4.30;2.35;;;;;;;15.05;95.19;100637.63;5059744;28;20060;-72
2023/05/07 04:37:16;;;;;;;5.90;2.10;;;;;;;15.08;95.14;100640.72;5060019;28;20035;-73
2023/05/07 04:39:41;;;;;;;4.85;2.70;;;;;;;15.07;95.29;100638.28;5060146;28;20044;-72
2023/05/07 04:42:08;;;;;;;3.38;2.13;;;;;;;15.13;94.56;100634.94;5059446;28;20060;-73
2023/05/07 04:44:34;;;;;;;2.42;2.22;;;;;;;15.20;94.01;100631.47;5060395;28;21766;-73
2023/05/07 04:47:00;;;;;;;2.47;2.28;;;;;;;15.20;94.02;100633.28;5061193;28;20033;-73
2023/05/07 04:49:25;;;;;;;2.20;2.00;;;;;;;15.17;94.03;100631.81;5060009;28;20032;-72
2023/05/07 04:51:51;;;;;;;4.03;2.20;;;;;;;15.21;94.13;100637.53;5057230;28;20045;-72
2023/05/07 04:54:16;;;;;;;6.03;2.22;;;;;;;15.23;94.07;100635.56;5062885;28;20028;-73
2023/05/07 04:56:42;;;;;;;2.72;2.15;;;;;;;15.24;93.76;100635.38;5061232;28;20028;-73
2023/05/07 04:59:07;;;;;;;4.32;2.08;;;;;;;15.33;93.24;100636.19;5054279;28;20036;-73
2023/05/07 05:01:33;;;;;;;3.17;2.05;;;;;;;15.44;92.48;100645.50;5061392;28;20025;-73
2023/05/07 05:04:00;;;;;;;4.38;1.63;;;;;;;15.49;92.30;100657.13;5059398;28;20051;-75
2023/05/07 05:06:25;;;;;;;3.40;1.85;;;;;;;15.56;91.90;100650.22;5062069;28;20059;-74
2023/05/07 05:08:50;;;;;;;3.38;2.20;;;;;;;15.61;91.22;100654.94;5060110;28;20118;-74
2023/05/07 05:11:16;;;;;;;2.65;2.15;;;;;;;15.53;91.56;100658.41;5062374;28;20037;-75
2023/05/07 05:13:41;;;;;;;2.20;2.00;;;;;;;15.43;92.29;100662.22;5061949;28;20075;-73
2023/05/07 05:16:07;;;;;;;3.97;2.17;;;;;;;15.31;93.22;100668.84;5062430;28;20039;-76
2023/05/07 05:18:32;;;;;;;4.47;2.13;;;;;;;15.22;94.22;100670.66;5059232;28;20485;-74
2023/05/07 05:20:58;;;;;;;3.58;2.10;;;;;;;15.22;94.42;100668.88;5061648;28;20032;-75
2023/05/07 05:23:23;;;;;;;6.78;2.25;;;;;;;15.22;94.41;100674.13;5065663;28;20032;-75
2023/05/07 05:25:49;;;;;;;2.17;1.85;;;;;;;15.29;94.22;100676.88;5067620;28;20422;-74
2023/05/07 05:28:15;;;;;;;5.25;2.13;;;;;;;15.35;94.25;100670.97;5065992;28;20040;-74
2023/05/07 05:30:40;;;;;;;3.30;2.30;;;;;;;15.43;93.98;100668.31;5062646;28;20481;-74
2023/05/07 05:33:05;;;;;;;6.28;1.83;;;;;;;15.52;93.27;100664.66;5059708;28;20112;-74
2023/05/07 05:35:31;;;;;;;3.83;1.75;;;;;;;15.67;92.83;100669.19;5064492;28;20040;-75
2023/05/07 05:37:57;;;;;;;6.30;1.80;;;;;;;15.82;91.76;100659.56;5070120;28;20032;-76
2023/05/07 05:40:22;;;;;;;3.60;2.20;;;;;;;15.92;91.21;100662.81;5060024;28;20063;-75
2023/05/07 05:42:47;;;;;;;1.80;1.60;;;;;;;16.05;90.40;100662.22;5068127;28;20107;-77
2023/05/07 05:45:13;;;;;;;3.67;2.22;;;;;;;16.18;89.77;100665.06;5058947;28;20047;-76
2023/05/07 05:47:39;;;;;;;1.98;1.70;;;;;;;16.31;88.83;100662.69;5069736;28;20043;-77
2023/05/07 05:50:06;;;;;;;2.15;1.65;;;;;;;16.40;87.67;100660.78;5064487;28;20028;-73
2023/05/07 05:52:31;;;;;;;4.90;1.35;;;;;;;16.64;85.82;100660.59;5071391;28;20068;-74
2023/05/07 05:54:57;;;;;;;3.65;2.10;;;;;;;16.82;85.26;100658.44;5067956;28;20113;-74
2023/05/07 05:57:22;;;;;;;2.47;1.45;;;;;;;16.97;84.29;100655.00;5072577;28;20036;-74
2023/05/07 05:59:48;;;;;;;1.73;1.30;;;;;;;17.09;83.80;100654.34;5057250;28;20043;-74
2023/05/07 06:02:13;;;;;;;5.05;1.33;;;;;;;17.26;82.96;100657.63;5064336;28;20048;-73
2023/05/07 06:04:39;;;;;;;1.60;1.33;;;;;;;17.31;82.70;100652.63;5068567;28;20028;-74
2023/05/07 06:07:05;;;;;;;2.80;1.15;;;;;;;17.35;82.75;100646.00;5067016;28;20104;-75
2023/05/07 06:09:30;;;;;;;1.73;1.10;;;;;;;17.35;82.51;100647.81;5064339;28;20405;-74
2023/05/07 06:11:56;;;;;;;2.17;1.45;;;;;;;17.37;82.53;100640.53;5062073;28;20032;-75
2023/05/07 06:14:21;;;;;;;1.73;1.60;;;;;;;17.46;83.02;100653.44;5066322;28;20115;-75
2023/05/07 06:16:47;;;;;;;2.05;1.52;;;;;;;17.43;83.00;100658.25;5070577;28;20025;-74
2023/05/07 06:19:12;;;;;;;4.20;1.73;;;;;;;17.38;83.20;100657.97;5067162;28;20134;-73
2023/05/07 06:21:38;;;;;;;2.60;1.52;;;;;;;17.44;82.64;100659.88;5066347;28;20048;-73
2023/05/07 06:24:04;;;;;;;1.52;1.20;;;;;;;17.46;82.73;100663.97;5068922;28;20029;-74
2023/05/07 06:26:30;;;;;;;2.15;1.42;;;;;;;17.48;83.20;100661.97;5068811;28;20028;-73
2023/05/07 06:28:55;;;;;;;3.53;1.45;;;;;;;17.46;82.83;100663.97;5066615;28;20409;-73
2023/05/07 06:31:21;;;;;;;3.78;1.48;;;;;;;17.44;83.08;100673.88;5067732;28;20039;-73
2023/05/07 06:33:46;;;;;;;1.88;1.67;;;;;;;17.42;83.49;100675.88;5069294;28;20032;-73
2023/05/07 06:36:12;;;;;;;1.85;1.67;;;;;;;17.43;83.48;100674.88;5069050;28;20047;-74
2023/05/07 06:38:37;;;;;;;3.10;1.40;;;;;;;17.50;83.83;100661.75;5068834;28;20028;-72
2023/05/07 06:41:03;;;;;;;2.85;1.48;;;;;;;17.67;83.13;100667.66;5067692;28;20039;-73
2023/05/07 06:43:28;;;;;;;2.90;1.50;;;;;;;17.79;82.53;100660.91;5066646;28;20044;-74
2023/05/07 06:45:54;;;;;;;2.33;1.65;;;;;;;17.89;82.03;100664.06;5075736;28;20039;-75
2023/05/07 06:48:19;;;;;;;2.90;1.60;;;;;;;17.98;81.43;100656.81;5069506;28;20029;-73
2023/05/07 06:50:45;;;;;;;3.20;1.27;;;;;;;18.14;81.38;100659.22;5068649;28;20041;-74
2023/05/07 06:53:10;;;;;;;5.25;1.50;;;;;;;18.29;80.98;100659.97;5076101;28;20393;-73
2023/05/07 06:55:37;;;;;;;2.63;1.45;;;;;;;18.42;80.35;100664.53;5070216;28;20132;-73
2023/05/07 06:58:03;;;;;;;3.35;1.17;;;;;;;18.46;80.01;100660.50;5055363;28;20052;-74
2023/05/07 07:00:29;;;;;;;1.55;1.45;;;;;;;18.56;80.07;100656.50;5059023;28;20032;-74
2023/05/07 07:02:55;;;;;;;1.95;1.70;;;;;;;18.63;79.12;100661.88;5066590;28;20179;-74
2023/05/07 07:05:20;;;;;;;5.20;1.70;;;;;;;18.68;78.82;100658.66;5055672;28;20385;-73
2023/05/07 07:07:52;;;;;;;6.18;1.42;;;;;;;18.77;78.11;100654.88;5059400;28;20040;-75
2023/05/07 07:10:24;;;;;;;3.15;1.20;;;;;;;18.88;76.78;100649.88;5057125;28;20036;-75
2023/05/07 07:12:50;;;;;;;3.25;1.30;;;;;;;18.98;76.90;100646.03;5057497;28;20036;-73
2023/05/07 07:15:16;;;;;;;1.52;1.27;;;;;;;19.04;76.76;100645.25;5055959;28;20033;-73
2023/05/07 07:17:41;;;;;;;2.55;1.38;;;;;;;19.12;76.91;100645.09;5065425;28;20030;-73
2023/05/07 07:20:07;;;;;;;3.00;1.60;;;;;;;19.25;76.17;100639.06;5055679;28;20024;-73
2023/05/07 07:22:33;;;;;;;1.60;1.30;;;;;;;19.39;75.18;100644.19;5058094;28;20560;-72
2023/05/07 07:24:58;;;;;;;2.60;1.60;;;;;;;19.48;75.50;100643.00;5056410;28;20052;-73
2023/05/07 07:27:24;;;;;;;2.78;1.45;;;;;;;19.63;74.86;100642.09;5056485;28;20106;-71
2023/05/07 07:29:49;;;;;;;4.75;1.13;;;;;;;19.72;74.17;100638.25;5070937;28;20055;-72
2023/05/07 07:32:15;;;;;;;1.63;1.35;;;;;;;19.75;74.79;100640.50;5064125;28;20063;-72
2023/05/07 07:34:40;;;;;;;1.30;1.20;;;;;;;19.87;74.24;100634.38;5061886;28;20452;-71
2023/05/07 07:37:06;;;;;;;3.45;1.25;;;;;;;20.04;73.77;100639.31;5059374;28;20120;-72
2023/05/07 07:39:35;;;;;;;2.92;1.50;;;;;;;20.07;73.44;100637.06;5061304;28;20037;-72
2023/05/07 07:42:00;;;;;;;1.48;1.20;;;;;;;20.21;73.26;100640.53;5061851;28;20083;-72
2023/05/07 07:44:27;;;;;;;3.83;1.65;;;;;;;20.47;72.81;100640.56;5061015;28;20432;-72
2023/05/07 07:46:53;;;;;;;1.30;1.05;;;;;;;20.56;71.08;100641.16;5062978;28;20420;-73
2023/05/07 07:49:18;;;;;;;1.80;1.30;;;;;;;20.61;70.63;100644.00;5067014;28;20044;-72
2023/05/07 07:51:44;;;;;;;2.97;1.60;;;;;;;20.77;70.10;100638.28;5058996;28;20055;-75
2023/05/07 07:54:10;;;;;;;1.73;1.02;;;;;;;20.93;68.97;100644.16;5059874;28;20582;-74
2023/05/07 07:56:35;;;;;;;2.00;1.08;;;;;;;21.04;68.60;100641.66;5066718;28;20033;-76
2023/05/07 07:59:01;;;;;;;1.60;0.90;;;;;;;21.12;68.14;100638.78;5068454;28;20506;-75
2023/05/07 08:01:27;;;;;;;1.17;0.80;;;;;;;21.22;67.05;100633.09;5070316;28;20037;-76
2023/05/07 08:03:52;;;;;;;1.75;1.10;;;;;;;21.35;66.88;100640.97;5067433;28;20071;-74
2023/05/07 08:06:18;;;;;;;1.75;1.10;;;;;;;21.48;66.49;100643.56;5063186;28;20339;-74
2023/05/07 08:08:44;;;;;;;2.25;1.20;;;;;;;21.60;66.42;100637.59;5066626;28;20063;-74
2023/05/07 08:11:10;;;;;;;1.85;1.00;;;;;;;21.70;65.81;100645.91;5072052;28;20036;-75
2023/05/07 08:13:36;;;;;;;3.67;1.00;;;;;;;21.69;66.13;100644.28;5070179;28;20032;-75
2023/05/07 08:16:02;;;;;;;1.75;1.08;;;;;;;21.79;66.45;100636.66;5069312;28;20467;-73
2023/05/07 08:18:28;;;;;;;1.98;1.25;;;;;;;21.86;66.98;100635.56;5069869;28;20088;-74
2023/05/07 08:20:54;;;;;;;2.58;0.93;;;;;;;22.01;66.51;100637.13;5063604;28;20626;-75
2023/05/07 08:23:20;;;;;;;2.45;1.30;;;;;;;22.16;65.90;100641.13;5060315;28;20387;-75
2023/05/07 08:25:45;;;;;;;4.57;1.08;;;;;;;22.21;66.01;100651.09;5062234;28;20059;-74
2023/05/07 08:28:11;;;;;;;2.67;1.00;;;;;;;22.40;66.00;100649.28;5063394;28;20520;-75
2023/05/07 08:30:36;;;;;;;4.05;1.00;;;;;;;22.45;66.15;100647.59;5060903;28;20032;-74
2023/05/07 08:33:02;;;;;;;2.15;1.10;;;;;;;22.60;66.62;100655.25;5068478;28;20348;-74
2023/05/07 08:35:27;;;;;;;1.35;0.98;;;;;;;22.78;65.68;100654.44;5079839;28;20492;-76
2023/05/07 08:37:53;;;;;;;3.65;1.10;;;;;;;23.06;65.15;100646.81;5075407;28;20025;-75
2023/05/07 08:40:19;;;;;;;2.40;1.20;;;;;;;23.16;65.59;100648.94;5058358;28;20567;-74
2023/05/07 08:42:45;;;;;;;1.85;0.80;;;;;;;23.01;63.66;100646.66;5065065;28;20028;-74
2023/05/07 08:45:11;;;;;;;3.20;0.95;;;;;;;22.99;62.41;100647.91;5063641;28;20489;-73
2023/05/07 08:47:46;;;;;;;2.80;0.90;;;;;;;23.03;60.13;100654.41;5064935;28;20059;-73
2023/05/07 08:50:12;;;;;;;1.77;0.70;;;;;;;23.01;60.78;100644.00;5066941;28;20037;-74
2023/05/07 08:52:37;;;;;;;2.70;0.95;;;;;;;23.16;62.29;100644.44;5070911;28;20044;-74
2023/05/07 08:55:03;;;;;;;1.50;0.82;;;;;;;23.20;61.26;100647.44;5070747;28;20043;-73
2023/05/07 08:57:29;;;;;;;3.58;0.98;;;;;;;22.98;61.04;100648.94;5060727;28;20041;-74
2023/05/07 08:59:55;;;;;;;1.00;0.60;;;;;;;23.16;60.50;100647.09;5060120;28;20032;-75
2023/05/07 09:02:20;;;;;;;1.58;1.10;;;;;;;23.32;61.11;100637.69;5067701;28;20024;-74
2023/05/07 09:04:46;;;;;;;1.85;1.30;;;;;;;23.40;61.56;100640.06;5062085;28;20480;-71
2023/05/07 09:07:11;;;;;;;4.43;1.15;;;;;;;23.42;60.92;100640.66;5058323;28;20037;-73
2023/05/07 09:09:37;;;;;;;3.53;1.08;;;;;;;23.50;61.96;100648.31;5062048;28;20056;-74
2023/05/07 09:12:03;;;;;;;2.70;0.88;;;;;;;23.42;60.99;100640.66;5062300;28;20025;-72
2023/05/07 09:14:30;;;;;;;2.92;0.85;;;;;;;23.52;60.96;100650.75;5060975;28;20116;-72
2023/05/07 09:16:56;;;;;;;1.35;0.88;;;;;;;23.52;60.32;100648.09;5057534;28;20446;-72
2023/05/07 09:19:26;;;;;;;2.67;0.93;;;;;;;23.28;60.53;100638.38;5051917;28;20040;-74
2023/05/07 09:22:02;;;;;;;2.22;0.95;;;;;;;23.23;60.24;100640.88;5053464;28;20054;-74
2023/05/07 09:24:30;;;;;;;1.42;0.82;;;;;;;23.36;60.16;100638.88;5056419;28;20043;-73
2023/05/07 09:26:58;;;;;;;1.55;0.73;;;;;;;23.58;58.89;100649.06;5057383;28;20025;-74
2023/05/07 09:29:23;;;;;;;1.42;1.08;;;;;;;23.60;58.00;100642.50;5052242;28;20059;-73
2023/05/07 09:31:48;;;;;;;2.05;0.70;;;;;;;23.61;57.84;100643.31;5061082;28;20056;-72
2023/05/07 09:34:14;;;;;;;2.08;0.47;;;;;;;23.71;56.53;100638.22;5067703;28;20036;-74
2023/05/07 09:36:39;;;;;;;2.20;1.13;;;;;;;23.56;57.51;100635.19;5067428;28;20038;-74
2023/05/07 09:39:05;;;;;;;2.33;0.50;;;;;;;23.34;57.09;100632.97;5066142;28;20031;-75
2023/05/07 09:41:32;;;;;;;3.58;0.93;;;;;;;23.52;56.53;100628.66;5061601;28;20024;-75
2023/05/07 09:43:57;;;;;;;1.20;0.90;;;;;;;23.63;56.55;100633.25;5063086;28;20139;-72
2023/05/07 09:46:30;;;;;;;2.38;0.77;;;;;;;23.65;57.23;100634.63;5065546;28;20025;-74
2023/05/07 09:48:58;;;;;;;1.48;0.90;;;;;;;23.61;59.62;100628.16;5067821;28;20115;-73
2023/05/07 09:51:31;;;;;;;1.08;0.90;;;;;;;23.61;59.56;100630.81;5068789;28;20102;-73
2023/05/07 09:54:00;;;;;;;0.88;0.80;;;;;;;23.76;60.09;100638.34;5069921;28;20388;-73
2023/05/07 09:56:26;;;;;;;3.20;0.90;;;;;;;23.71;58.79;100640.88;5073943;28;20032;-73
2023/05/07 09:58:55;;;;;;;1.50;1.00;;;;;;;23.33;57.59;100631.34;5065997;28;20035;-73
2023/05/07 10:01:22;;;;;;;1.30;0.80;;;;;;;23.28;59.35;100644.50;5067613;28;20024;-74
2023/05/07 10:03:50;;;;;;;4.25;0.82;;;;;;;23.35;58.96;100639.09;5068585;28;20319;-73
2023/05/07 10:06:16;;;;;;;1.92;0.80;;;;;;;23.53;59.05;100640.91;5065096;28;20028;-73
2023/05/07 10:08:43;;;;;;;1.10;0.88;;;;;;;23.52;58.66;100634.78;5069721;28;20393;-72
2023/05/07 10:11:09;;;;;;;1.48;1.10;;;;;;;23.41;59.36;100633.69;5069627;28;20524;-71
2023/05/07 10:13:36;;;;;;;1.40;0.85;;;;;;;23.56;58.69;100633.34;5068979;28;20090;-71
2023/05/07 10:16:04;;;;;;;5.68;0.95;;;;;;;23.53;58.85;100633.78;5068126;28;20028;-71
2023/05/07 10:18:32;;;;;;;1.17;0.98;;;;;;;23.65;58.06;100639.13;5067769;28;20388;-71
2023/05/07 10:21:15;;;;;;;2.45;1.05;;;;;;;23.75;57.35;100634.06;5075728;28;20067;-71
2023/05/07 10:23:48;;;;;;;0.95;0.65;;;;;;;23.83;56.72;100631.91;5056958;28;20075;-74
2023/05/07 10:26:17;;;;;;;2.90;0.88;;;;;;;23.80;55.57;100629.69;5058027;28;20036;-71
2023/05/07 10:28:46;;;;;;;0.98;0.60;;;;;;;23.80;54.77;100628.88;5062559;28;20027;-72
2023/05/07 10:31:32;;;;;;;1.63;0.82;;;;;;;23.63;54.61;100627.94;5059007;28;20177;-71
2023/05/07 10:33:59;;;;;;;1.75;0.80;;;;;;;23.35;55.58;100626.63;5065062;28;20024;-73
2023/05/07 10:36:25;;;;;;;4.38;0.60;;;;;;;23.45;55.68;100618.91;5061794;28;20482;-71
2023/05/07 10:38:51;;;;;;;2.85;0.70;;;;;;;23.63;54.90;100618.06;5066949;28;20028;-72
2023/05/07 10:41:18;;;;;;;1.42;0.68;;;;;;;23.67;55.90;100621.91;5064440;28;20035;-70
2023/05/07 10:43:45;;;;;;;1.15;0.50;;;;;;;23.65;53.57;100620.50;5064769;28;20462;-71
2023/05/07 10:46:19;;;;;;;4.60;0.40;;;;;;;23.69;52.65;100621.69;5066788;28;20036;-71
2023/05/07 10:49:03;;;;;;;0.73;0.40;;;;;;;23.71;51.45;100622.25;5062106;28;20039;-71
2023/05/07 10:51:33;;;;;;;0.85;0.35;;;;;;;23.88;51.12;100628.56;5063734;28;20053;-72
2023/05/07 10:54:24;;;;;;;0.90;0.30;;;;;;;24.02;49.13;100614.03;5070772;28;20039;-72
2023/05/07 10:56:50;;;;;;;2.67;0.30;;;;;;;24.05;48.97;100610.09;5061822;28;20066;-72
2023/05/07 10:59:30;;;;;;;1.23;0.45;;;;;;;23.94;49.53;100619.69;5064205;28;20040;-71
2023/05/07 11:02:03;;;;;;;1.05;0.40;;;;;;;23.92;50.93;100619.09;5076828;28;20393;-72
2023/05/07 11:04:34;;;;;;;2.08;0.40;;;;;;;23.98;50.34;100615.53;5071565;28;20032;-72
2023/05/07 11:07:06;;;;;;;0.82;0.40;;;;;;;23.85;50.50;100610.41;5073193;28;20033;-72
2023/05/07 11:09:53;;;;;;;1.13;0.70;;;;;;;23.70;50.42;100612.66;5072649;28;20043;-73
2023/05/07 11:12:37;;;;;;;0.93;0.40;;;;;;;23.62;51.09;100613.00;5074896;28;20044;-73
2023/05/07 11:15:09;;;;;;;5.00;0.80;;;;;;;23.89;50.55;100613.41;5066328;28;20028;-73
2023/05/07 11:17:52;;;;;;;1.23;0.30;;;;;;;23.95;48.97;100618.63;5082612;28;20032;-72
2023/05/07 11:20:18;;;;;;;1.63;0.50;;;;;;;24.01;49.62;100612.41;5069370;28;20056;-74
2023/05/07 11:22:43;;;;;;;0.80;0.40;;;;;;;24.13;49.01;100612.41;5067107;28;20133;-75
2023/05/07 11:25:08;;;;;;;7.60;0.55;;;;;;;24.05;49.55;100613.56;5067215;28;20032;-72
2023/05/07 11:27:34;;;;;;;1.27;0.30;;;;;;;23.98;48.76;100620.03;5060828;28;20564;-72
2023/05/07 11:30:00;;;;;;;1.85;0.40;;;;;;;24.00;49.48;100618.75;5060728;28;20036;-70
2023/05/07 11:32:31;;;;;;;7.15;0.50;;;;;;;24.01;48.23;100617.72;5070195;28;20494;-73
2023/05/07 11:35:00;;;;;;;0.88;0.32;;;;;;;24.17;47.48;100616.22;5075410;28;20046;-74
2023/05/07 11:37:29;;;;;;;0.88;0.40;;;;;;;24.14;47.76;100609.50;5065993;28;20143;-73
2023/05/07 11:40:09;;;;;;;2.15;0.30;;;;;;;24.04;45.50;100613.78;5067321;28;20040;-75
2023/05/07 11:42:37;;;;;;;1.77;0.40;;;;;;;24.20;44.96;100614.94;5071027;28;20111;-75
2023/05/07 11:45:03;;;;;;;0.45;0.30;;;;;;;24.31;44.86;100612.34;5069558;28;20032;-75
2023/05/07 11:47:33;;;;;;;4.20;0.40;;;;;;;24.35;46.75;100613.50;5060394;28;20036;-76
2023/05/07 11:50:04;;;;;;;0.75;0.30;;;;;;;24.46;44.84;100619.88;5062096;28;20060;-75
2023/05/07 11:52:30;;;;;;;1.15;0.30;;;;;;;24.52;44.17;100618.13;5062239;28;20044;-75